sensor_id;sensor_type;location;lat;lon;timestamp;pressure;altitude;pressure_sealevel;temperature;humidity
50065;BME280;64524;47.848;-122.338;2023-01-05T00:01:35;100258.65;;;8.68;100.00
50065;BME280;64524;47.848;-122.338;2023-01-05T00:04:03;100253.94;;;8.64;100.00
50065;BME280;64524;47.848;-122.338;2023-01-05T00:06:32;100246.31;;;8.61;100.00
50065;BME280;64524;47.848;-122.338;2023-01-05T00:09:01;100243.33;;;8.57;100.00
50065;BME280;64524;47.848;-122.338;2023-01-05T00:11:29;100235.50;;;8.52;100.00
50065;BME280;64524;47.848;-122.338;2023-01-05T00:14:17;100238.87;;;8.46;100.00
50065;BME280;64524;47.848;-122.338;2023-01-05T00:17:04;100231.38;;;8.41;100.00
50065;BME280;64524;47.848;-122.338;2023-01-05T00:19:51;100236.46;;;8.35;100.00
50065;BME280;64524;47.848;-122.338;2023-01-05T00:22:43;100237.77;;;8.29;100.00
50065;BME280;64524;47.848;-122.338;2023-01-05T00:25:20;100231.14;;;8.24;100.00
50065;BME280;64524;47.848;-122.338;2023-01-05T00:27:49;100220.19;;;8.19;100.00
50065;BME280;64524;47.848;-122.338;2023-01-05T00:30:22;100220.48;;;8.14;100.00
50065;BME280;64524;47.848;-122.338;2023-01-05T00:32:51;100219.88;;;8.09;100.00
50065;BME280;64524;47.848;-122.338;2023-01-05T00:35:20;100207.39;;;8.03;100.00
50065;BME280;64524;47.848;-122.338;2023-01-05T00:37:49;100196.98;;;8.00;100.00
50065;BME280;64524;47.848;-122.338;2023-01-05T00:40:18;100199.36;;;7.97;100.00
50065;BME280;64524;47.848;-122.338;2023-01-05T00:42:46;100200.56;;;7.96;100.00
50065;BME280;64524;47.848;-122.338;2023-01-05T00:45:15;100194.48;;;7.93;100.00
50065;BME280;64524;47.848;-122.338;2023-01-05T00:47:44;100192.39;;;7.92;100.00
50065;BME280;64524;47.848;-122.338;2023-01-05T00:50:13;100185.30;;;7.90;100.00
50065;BME280;64524;47.848;-122.338;2023-01-05T00:52:42;100189.27;;;7.92;100.00
50065;BME280;64524;47.848;-122.338;2023-01-05T00:55:10;100184.81;;;7.92;100.00
50065;BME280;64524;47.848;-122.338;2023-01-05T00:57:38;100173.79;;;7.94;100.00
50065;BME280;64524;47.848;-122.338;2023-01-05T01:00:07;100160.70;;;7.96;100.00
50065;BME280;64524;47.848;-122.338;2023-01-05T01:02:38;100165.73;;;7.97;100.00
50065;BME280;64524;47.848;-122.338;2023-01-05T01:05:06;100178.50;;;7.98;100.00
50065;BME280;64524;47.848;-122.338;2023-01-05T01:07:35;100187.84;;;7.99;100.00
50065;BME280;64524;47.848;-122.338;2023-01-05T01:10:03;100194.23;;;7.99;100.00
50065;BME280;64524;47.848;-122.338;2023-01-05T01:12:32;100202.15;;;8.00;100.00
50065;BME280;64524;47.848;-122.338;2023-01-05T01:15:00;100198.53;;;7.99;100.00
50065;BME280;64524;47.848;-122.338;2023-01-05T01:17:29;100193.36;;;8.00;100.00
50065;BME280;64524;47.848;-122.338;2023-01-05T01:19:58;100191.83;;;8.01;100.00
50065;BME280;64524;47.848;-122.338;2023-01-05T01:22:27;100191.16;;;8.03;100.00
50065;BME280;64524;47.848;-122.338;2023-01-05T01:24:55;100188.39;;;8.03;100.00
50065;BME280;64524;47.848;-122.338;2023-01-05T01:27:23;100184.08;;;8.03;100.00
50065;BME280;64524;47.848;-122.338;2023-01-05T01:29:52;100184.45;;;8.04;100.00
50065;BME280;64524;47.848;-122.338;2023-01-05T01:32:20;100184.98;;;8.05;100.00
50065;BME280;64524;47.848;-122.338;2023-01-05T01:34:49;100183.63;;;8.06;100.00
50065;BME280;64524;47.848;-122.338;2023-01-05T01:37:17;100179.48;;;8.07;100.00
50065;BME280;64524;47.848;-122.338;2023-01-05T01:39:45;100171.77;;;8.10;100.00
50065;BME280;64524;47.848;-122.338;2023-01-05T01:42:14;100165.45;;;8.13;100.00
50065;BME280;64524;47.848;-122.338;2023-01-05T01:44:47;100162.89;;;8.16;100.00
50065;BME280;64524;47.848;-122.338;2023-01-05T01:50:18;100151.18;;;8.19;100.00
50065;BME280;64524;47.848;-122.338;2023-01-05T01:52:48;100151.71;;;8.20;100.00
50065;BME280;64524;47.848;-122.338;2023-01-05T01:55:17;100151.74;;;8.22;100.00
50065;BME280;64524;47.848;-122.338;2023-01-05T01:57:46;100148.48;;;8.24;100.00
50065;BME280;64524;47.848;-122.338;2023-01-05T02:00:15;100143.16;;;8.27;100.00
50065;BME280;64524;47.848;-122.338;2023-01-05T02:02:45;100137.17;;;8.30;100.00
50065;BME280;64524;47.848;-122.338;2023-01-05T02:05:14;100129.95;;;8.33;100.00
50065;BME280;64524;47.848;-122.338;2023-01-05T02:07:45;100124.63;;;8.35;100.00
50065;BME280;64524;47.848;-122.338;2023-01-05T02:10:15;100115.17;;;8.37;100.00
50065;BME280;64524;47.848;-122.338;2023-01-05T02:15:23;100104.65;;;8.38;100.00
50065;BME280;64524;47.848;-122.338;2023-01-05T02:20:35;100094.31;;;8.40;100.00
50065;BME280;64524;47.848;-122.338;2023-01-05T02:30:55;100083.85;;;8.44;100.00
50065;BME280;64524;47.848;-122.338;2023-01-05T02:36:03;100078.88;;;8.46;100.00
50065;BME280;64524;47.848;-122.338;2023-01-05T02:38:56;100074.59;;;8.49;100.00
50065;BME280;64524;47.848;-122.338;2023-01-05T02:43:57;100062.21;;;8.54;100.00
50065;BME280;64524;47.848;-122.338;2023-01-05T02:46:28;100051.88;;;8.56;100.00
50065;BME280;64524;47.848;-122.338;2023-01-05T02:48:57;100044.13;;;8.58;100.00
50065;BME280;64524;47.848;-122.338;2023-01-05T02:51:36;100040.00;;;8.61;100.00
50065;BME280;64524;47.848;-122.338;2023-01-05T02:57:06;100026.20;;;8.63;100.00
50065;BME280;64524;47.848;-122.338;2023-01-05T02:59:46;100027.26;;;8.65;100.00
50065;BME280;64524;47.848;-122.338;2023-01-05T03:02:22;100022.61;;;8.66;100.00
50065;BME280;64524;47.848;-122.338;2023-01-05T03:04:53;100024.70;;;8.67;100.00
50065;BME280;64524;47.848;-122.338;2023-01-05T03:07:26;100020.21;;;8.68;100.00
50065;BME280;64524;47.848;-122.338;2023-01-05T03:09:55;100021.42;;;8.69;100.00
50065;BME280;64524;47.848;-122.338;2023-01-05T03:12:28;100022.46;;;8.69;100.00
50065;BME280;64524;47.848;-122.338;2023-01-05T03:17:49;100003.99;;;8.69;100.00
50065;BME280;64524;47.848;-122.338;2023-01-05T03:20:20;100005.36;;;8.69;100.00
50065;BME280;64524;47.848;-122.338;2023-01-05T03:22:50;99995.54;;;8.69;100.00
50065;BME280;64524;47.848;-122.338;2023-01-05T03:25:38;99985.36;;;8.70;100.00
50065;BME280;64524;47.848;-122.338;2023-01-05T03:28:26;99972.05;;;8.70;100.00
50065;BME280;64524;47.848;-122.338;2023-01-05T03:34:13;99948.57;;;8.69;100.00
50065;BME280;64524;47.848;-122.338;2023-01-05T03:37:24;99930.41;;;8.66;100.00
50065;BME280;64524;47.848;-122.338;2023-01-05T03:39:50;99916.06;;;8.64;100.00
50065;BME280;64524;47.848;-122.338;2023-01-05T03:42:21;99900.70;;;8.61;100.00
50065;BME280;64524;47.848;-122.338;2023-01-05T03:44:50;99897.41;;;8.59;100.00
50065;BME280;64524;47.848;-122.338;2023-01-05T03:47:18;99899.96;;;8.56;100.00
50065;BME280;64524;47.848;-122.338;2023-01-05T03:49:47;99901.65;;;8.51;100.00
50065;BME280;64524;47.848;-122.338;2023-01-05T03:52:16;99895.07;;;8.48;100.00
50065;BME280;64524;47.848;-122.338;2023-01-05T03:54:44;99891.25;;;8.44;100.00
50065;BME280;64524;47.848;-122.338;2023-01-05T03:57:12;99893.80;;;8.41;100.00
50065;BME280;64524;47.848;-122.338;2023-01-05T03:59:40;99893.06;;;8.38;100.00
50065;BME280;64524;47.848;-122.338;2023-01-05T04:02:09;99881.31;;;8.34;100.00
50065;BME280;64524;47.848;-122.338;2023-01-05T04:04:38;99864.37;;;8.31;100.00
50065;BME280;64524;47.848;-122.338;2023-01-05T04:07:06;99859.34;;;8.27;100.00
50065;BME280;64524;47.848;-122.338;2023-01-05T04:09:34;99853.77;;;8.23;100.00
50065;BME280;64524;47.848;-122.338;2023-01-05T04:12:03;99851.86;;;8.20;100.00
50065;BME280;64524;47.848;-122.338;2023-01-05T04:14:31;99857.38;;;8.18;100.00
50065;BME280;64524;47.848;-122.338;2023-01-05T04:16:59;99869.25;;;8.15;100.00
50065;BME280;64524;47.848;-122.338;2023-01-05T04:19:27;99873.53;;;8.12;100.00
50065;BME280;64524;47.848;-122.338;2023-01-05T04:21:56;99877.14;;;8.10;100.00
50065;BME280;64524;47.848;-122.338;2023-01-05T04:24:24;99874.70;;;8.05;100.00
50065;BME280;64524;47.848;-122.338;2023-01-05T04:26:53;99880.02;;;8.03;100.00
50065;BME280;64524;47.848;-122.338;2023-01-05T04:29:21;99882.75;;;8.00;100.00
50065;BME280;64524;47.848;-122.338;2023-01-05T04:31:52;99878.92;;;7.97;100.00
50065;BME280;64524;47.848;-122.338;2023-01-05T04:34:21;99877.84;;;7.93;100.00
50065;BME280;64524;47.848;-122.338;2023-01-05T04:36:50;99873.85;;;7.89;100.00
50065;BME280;64524;47.848;-122.338;2023-01-05T04:39:19;99876.05;;;7.85;100.00
50065;BME280;64524;47.848;-122.338;2023-01-05T04:41:47;99885.85;;;7.82;100.00
50065;BME280;64524;47.848;-122.338;2023-01-05T04:44:16;99883.41;;;7.79;100.00
50065;BME280;64524;47.848;-122.338;2023-01-05T04:46:49;99883.36;;;7.75;100.00
50065;BME280;64524;47.848;-122.338;2023-01-05T04:49:18;99888.69;;;7.73;100.00
50065;BME280;64524;47.848;-122.338;2023-01-05T04:51:46;99881.05;;;7.68;100.00
50065;BME280;64524;47.848;-122.338;2023-01-05T04:54:15;99872.21;;;7.62;100.00
50065;BME280;64524;47.848;-122.338;2023-01-05T04:56:43;99875.09;;;7.57;100.00
50065;BME280;64524;47.848;-122.338;2023-01-05T04:59:11;99879.01;;;7.52;100.00
50065;BME280;64524;47.848;-122.338;2023-01-05T05:01:40;99882.39;;;7.48;100.00
50065;BME280;64524;47.848;-122.338;2023-01-05T05:04:08;99885.30;;;7.46;100.00
50065;BME280;64524;47.848;-122.338;2023-01-05T05:06:36;99871.66;;;7.43;100.00
50065;BME280;64524;47.848;-122.338;2023-01-05T05:09:05;99873.69;;;7.40;100.00
50065;BME280;64524;47.848;-122.338;2023-01-05T05:11:33;99877.98;;;7.38;100.00
50065;BME280;64524;47.848;-122.338;2023-01-05T05:14:01;99883.81;;;7.37;100.00
50065;BME280;64524;47.848;-122.338;2023-01-05T05:16:29;99871.05;;;7.35;100.00
50065;BME280;64524;47.848;-122.338;2023-01-05T05:18:58;99866.04;;;7.34;100.00
50065;BME280;64524;47.848;-122.338;2023-01-05T05:21:26;99858.62;;;7.34;100.00
50065;BME280;64524;47.848;-122.338;2023-01-05T05:23:54;99858.81;;;7.34;100.00
50065;BME280;64524;47.848;-122.338;2023-01-05T05:26:22;99853.98;;;7.33;100.00
50065;BME280;64524;47.848;-122.338;2023-01-05T05:28:50;99848.66;;;7.35;100.00
50065;BME280;64524;47.848;-122.338;2023-01-05T05:31:19;99851.06;;;7.35;100.00
50065;BME280;64524;47.848;-122.338;2023-01-05T05:33:47;99848.14;;;7.36;100.00
50065;BME280;64524;47.848;-122.338;2023-01-05T05:36:16;99836.26;;;7.36;100.00
50065;BME280;64524;47.848;-122.338;2023-01-05T05:38:44;99828.33;;;7.36;100.00
50065;BME280;64524;47.848;-122.338;2023-01-05T05:41:13;99821.95;;;7.35;100.00
50065;BME280;64524;47.848;-122.338;2023-01-05T05:43:41;99810.74;;;7.35;100.00
50065;BME280;64524;47.848;-122.338;2023-01-05T05:46:10;99816.10;;;7.36;100.00
50065;BME280;64524;47.848;-122.338;2023-01-05T05:48:38;99805.08;;;7.36;100.00
50065;BME280;64524;47.848;-122.338;2023-01-05T05:51:06;99805.93;;;7.36;100.00
50065;BME280;64524;47.848;-122.338;2023-01-05T05:53:35;99819.02;;;7.35;100.00
50065;BME280;64524;47.848;-122.338;2023-01-05T05:56:03;99825.23;;;7.36;100.00
50065;BME280;64524;47.848;-122.338;2023-01-05T05:58:31;99826.27;;;7.37;100.00
50065;BME280;64524;47.848;-122.338;2023-01-05T06:01:00;99826.29;;;7.38;100.00
50065;BME280;64524;47.848;-122.338;2023-01-05T06:03:28;99820.61;;;7.40;100.00
50065;BME280;64524;47.848;-122.338;2023-01-05T06:05:56;99808.76;;;7.42;100.00
50065;BME280;64524;47.848;-122.338;2023-01-05T06:08:24;99799.81;;;7.44;100.00
50065;BME280;64524;47.848;-122.338;2023-01-05T06:10:53;99790.02;;;7.46;100.00
50065;BME280;64524;47.848;-122.338;2023-01-05T06:13:22;99794.17;;;7.48;100.00
50065;BME280;64524;47.848;-122.338;2023-01-05T06:15:53;99806.08;;;7.51;100.00
50065;BME280;64524;47.848;-122.338;2023-01-05T06:18:22;99800.09;;;7.53;100.00
50065;BME280;64524;47.848;-122.338;2023-01-05T06:20:50;99792.16;;;7.53;100.00
50065;BME280;64524;47.848;-122.338;2023-01-05T06:23:27;99787.34;;;7.55;100.00
50065;BME280;64524;47.848;-122.338;2023-01-05T06:25:55;99791.31;;;7.56;100.00
50065;BME280;64524;47.848;-122.338;2023-01-05T06:28:24;99782.54;;;7.57;100.00
50065;BME280;64524;47.848;-122.338;2023-01-05T06:30:52;99773.91;;;7.56;100.00
50065;BME280;64524;47.848;-122.338;2023-01-05T06:33:21;99764.23;;;7.54;100.00
50065;BME280;64524;47.848;-122.338;2023-01-05T06:35:50;99751.47;;;7.52;100.00
50065;BME280;64524;47.848;-122.338;2023-01-05T06:38:18;99736.80;;;7.50;100.00
50065;BME280;64524;47.848;-122.338;2023-01-05T06:40:48;99744.02;;;7.47;100.00
50065;BME280;64524;47.848;-122.338;2023-01-05T06:43:16;99744.36;;;7.46;100.00
50065;BME280;64524;47.848;-122.338;2023-01-05T06:45:44;99736.60;;;7.46;100.00
50065;BME280;64524;47.848;-122.338;2023-01-05T06:48:12;99735.91;;;7.46;100.00
50065;BME280;64524;47.848;-122.338;2023-01-05T06:50:41;99731.95;;;7.45;100.00
50065;BME280;64524;47.848;-122.338;2023-01-05T06:53:09;99736.23;;;7.45;100.00
50065;BME280;64524;47.848;-122.338;2023-01-05T06:55:38;99737.27;;;7.44;100.00
50065;BME280;64524;47.848;-122.338;2023-01-05T06:58:06;99754.84;;;7.43;100.00
50065;BME280;64524;47.848;-122.338;2023-01-05T07:00:34;99763.11;;;7.42;100.00
50065;BME280;64524;47.848;-122.338;2023-01-05T07:03:03;99757.73;;;7.41;100.00
50065;BME280;64524;47.848;-122.338;2023-01-05T07:05:31;99754.64;;;7.41;100.00
50065;BME280;64524;47.848;-122.338;2023-01-05T07:07:59;99748.24;;;7.40;100.00
50065;BME280;64524;47.848;-122.338;2023-01-05T07:10:28;99728.61;;;7.38;100.00
50065;BME280;64524;47.848;-122.338;2023-01-05T07:12:57;99718.08;;;7.36;100.00
50065;BME280;64524;47.848;-122.338;2023-01-05T07:15:25;99705.83;;;7.34;100.00
50065;BME280;64524;47.848;-122.338;2023-01-05T07:17:54;99710.80;;;7.31;100.00
50065;BME280;64524;47.848;-122.338;2023-01-05T07:20:22;99694.92;;;7.28;100.00
50065;BME280;64524;47.848;-122.338;2023-01-05T07:22:50;99679.91;;;7.26;100.00
50065;BME280;64524;47.848;-122.338;2023-01-05T07:25:19;99677.31;;;7.24;100.00
50065;BME280;64524;47.848;-122.338;2023-01-05T07:27:49;99666.11;;;7.24;100.00
50065;BME280;64524;47.848;-122.338;2023-01-05T07:30:19;99653.36;;;7.24;100.00
50065;BME280;64524;47.848;-122.338;2023-01-05T07:32:47;99646.81;;;7.23;100.00
50065;BME280;64524;47.848;-122.338;2023-01-05T07:35:16;99651.81;;;7.22;100.00
50065;BME280;64524;47.848;-122.338;2023-01-05T07:37:44;99644.92;;;7.23;100.00
50065;BME280;64524;47.848;-122.338;2023-01-05T07:40:13;99629.23;;;7.24;100.00
50065;BME280;64524;47.848;-122.338;2023-01-05T07:42:41;99614.60;;;7.23;100.00
50065;BME280;64524;47.848;-122.338;2023-01-05T07:45:10;99609.95;;;7.23;100.00
50065;BME280;64524;47.848;-122.338;2023-01-05T07:47:38;99600.14;;;7.24;100.00
50065;BME280;64524;47.848;-122.338;2023-01-05T07:50:07;99595.70;;;7.26;100.00
50065;BME280;64524;47.848;-122.338;2023-01-05T07:52:35;99588.46;;;7.28;100.00
50065;BME280;64524;47.848;-122.338;2023-01-05T07:55:04;99578.13;;;7.29;100.00
50065;BME280;64524;47.848;-122.338;2023-01-05T07:57:32;99570.73;;;7.30;100.00
50065;BME280;64524;47.848;-122.338;2023-01-05T08:00:01;99573.16;;;7.32;100.00
50065;BME280;64524;47.848;-122.338;2023-01-05T08:02:29;99566.80;;;7.33;100.00
50065;BME280;64524;47.848;-122.338;2023-01-05T08:05:01;99556.64;;;7.35;100.00
50065;BME280;64524;47.848;-122.338;2023-01-05T08:07:31;99569.58;;;7.38;100.00
50065;BME280;64524;47.848;-122.338;2023-01-05T08:09:59;99568.39;;;7.41;100.00
50065;BME280;64524;47.848;-122.338;2023-01-05T08:12:46;99567.71;;;7.42;100.00
50065;BME280;64524;47.848;-122.338;2023-01-05T08:15:33;99565.98;;;7.41;100.00
50065;BME280;64524;47.848;-122.338;2023-01-05T08:18:01;99574.78;;;7.42;100.00
50065;BME280;64524;47.848;-122.338;2023-01-05T08:20:29;99571.15;;;7.44;100.00
50065;BME280;64524;47.848;-122.338;2023-01-05T08:22:58;99574.27;;;7.44;100.00
50065;BME280;64524;47.848;-122.338;2023-01-05T08:25:26;99581.50;;;7.44;100.00
50065;BME280;64524;47.848;-122.338;2023-01-05T08:27:54;99599.77;;;7.42;100.00
50065;BME280;64524;47.848;-122.338;2023-01-05T08:30:22;99595.10;;;7.42;100.00
50065;BME280;64524;47.848;-122.338;2023-01-05T08:32:51;99598.04;;;7.42;100.00
50065;BME280;64524;47.848;-122.338;2023-01-05T08:35:19;99598.70;;;7.41;100.00
50065;BME280;64524;47.848;-122.338;2023-01-05T08:37:48;99596.98;;;7.40;100.00
50065;BME280;64524;47.848;-122.338;2023-01-05T08:40:16;99595.26;;;7.39;100.00
50065;BME280;64524;47.848;-122.338;2023-01-05T08:42:44;99587.51;;;7.39;100.00
50065;BME280;64524;47.848;-122.338;2023-01-05T08:45:16;99585.08;;;7.38;100.00
50065;BME280;64524;47.848;-122.338;2023-01-05T08:47:44;99593.16;;;7.36;100.00
50065;BME280;64524;47.848;-122.338;2023-01-05T08:50:13;99584.71;;;7.33;100.00
50065;BME280;64524;47.848;-122.338;2023-01-05T08:52:41;99582.12;;;7.32;100.00
50065;BME280;64524;47.848;-122.338;2023-01-05T08:55:10;99563.50;;;7.31;100.00
50065;BME280;64524;47.848;-122.338;2023-01-05T08:57:38;99554.02;;;7.31;100.00
50065;BME280;64524;47.848;-122.338;2023-01-05T09:00:07;99562.63;;;7.30;100.00
50065;BME280;64524;47.848;-122.338;2023-01-05T09:02:35;99551.09;;;7.29;100.00
50065;BME280;64524;47.848;-122.338;2023-01-05T09:05:04;99550.91;;;7.28;100.00
50065;BME280;64524;47.848;-122.338;2023-01-05T09:07:33;99556.23;;;7.28;100.00
50065;BME280;64524;47.848;-122.338;2023-01-05T09:10:01;99554.35;;;7.27;100.00
50065;BME280;64524;47.848;-122.338;2023-01-05T09:12:29;99553.66;;;7.27;100.00
50065;BME280;64524;47.848;-122.338;2023-01-05T09:14:58;99569.34;;;7.27;100.00
50065;BME280;64524;47.848;-122.338;2023-01-05T09:17:27;99568.64;;;7.26;100.00
50065;BME280;64524;47.848;-122.338;2023-01-05T09:19:56;99570.36;;;7.26;100.00
50065;BME280;64524;47.848;-122.338;2023-01-05T09:22:24;99581.91;;;7.27;100.00
50065;BME280;64524;47.848;-122.338;2023-01-05T09:24:53;99579.32;;;7.26;100.00
50065;BME280;64524;47.848;-122.338;2023-01-05T09:27:21;99584.14;;;7.26;100.00
50065;BME280;64524;47.848;-122.338;2023-01-05T09:29:50;99587.94;;;7.25;100.00
50065;BME280;64524;47.848;-122.338;2023-01-05T09:32:18;99590.50;;;7.25;100.00
50065;BME280;64524;47.848;-122.338;2023-01-05T09:34:46;99597.05;;;7.25;100.00
50065;BME280;64524;47.848;-122.338;2023-01-05T09:37:15;99592.05;;;7.24;100.00
50065;BME280;64524;47.848;-122.338;2023-01-05T09:39:43;99585.51;;;7.24;100.00
50065;BME280;64524;47.848;-122.338;2023-01-05T09:42:13;99579.13;;;7.24;100.00
50065;BME280;64524;47.848;-122.338;2023-01-05T09:44:47;99594.11;;;7.23;100.00
50065;BME280;64524;47.848;-122.338;2023-01-05T09:47:36;99596.52;;;7.23;100.00
50065;BME280;64524;47.848;-122.338;2023-01-05T09:50:05;99599.96;;;7.25;100.00
50065;BME280;64524;47.848;-122.338;2023-01-05T09:52:34;99610.33;;;7.26;100.00
50065;BME280;64524;47.848;-122.338;2023-01-05T09:55:16;99602.59;;;7.28;100.00
50065;BME280;64524;47.848;-122.338;2023-01-05T09:57:51;99596.41;;;7.30;100.00
50065;BME280;64524;47.848;-122.338;2023-01-05T10:00:20;99600.90;;;7.33;100.00
50065;BME280;64524;47.848;-122.338;2023-01-05T10:03:00;99605.91;;;7.35;100.00
50065;BME280;64524;47.848;-122.338;2023-01-05T10:05:29;99609.02;;;7.37;100.00
50065;BME280;64524;47.848;-122.338;2023-01-05T10:08:00;99627.65;;;7.39;100.00
50065;BME280;64524;47.848;-122.338;2023-01-05T10:13:40;99620.61;;;7.43;100.00
50065;BME280;64524;47.848;-122.338;2023-01-05T10:16:15;99608.04;;;7.44;100.00
50065;BME280;64524;47.848;-122.338;2023-01-05T10:18:44;99606.66;;;7.44;100.00
50065;BME280;64524;47.848;-122.338;2023-01-05T10:24:02;99599.77;;;7.43;100.00
50065;BME280;64524;47.848;-122.338;2023-01-05T10:26:39;99600.45;;;7.43;100.00
50065;BME280;64524;47.848;-122.338;2023-01-05T10:29:39;99608.38;;;7.43;100.00
50065;BME280;64524;47.848;-122.338;2023-01-05T10:32:23;99604.94;;;7.44;100.00
50065;BME280;64524;47.848;-122.338;2023-01-05T10:34:59;99602.55;;;7.47;100.00
50065;BME280;64524;47.848;-122.338;2023-01-05T10:45:18;99580.02;;;7.55;100.00
50065;BME280;64524;47.848;-122.338;2023-01-05T10:47:47;99577.77;;;7.55;100.00
50065;BME280;64524;47.848;-122.338;2023-01-05T10:50:59;99583.64;;;7.55;100.00
50065;BME280;64524;47.848;-122.338;2023-01-05T10:53:10;99588.99;;;7.55;100.00
50065;BME280;64524;47.848;-122.338;2023-01-05T10:55:47;99588.48;;;7.56;100.00
50065;BME280;64524;47.848;-122.338;2023-01-05T10:58:22;99588.48;;;7.56;100.00
50065;BME280;64524;47.848;-122.338;2023-01-05T11:00:52;99595.55;;;7.56;100.00
50065;BME280;64524;47.848;-122.338;2023-01-05T11:03:26;99592.11;;;7.57;100.00
50065;BME280;64524;47.848;-122.338;2023-01-05T11:06:22;99591.08;;;7.58;100.00
50065;BME280;64524;47.848;-122.338;2023-01-05T11:08:52;99591.41;;;7.58;100.00
50065;BME280;64524;47.848;-122.338;2023-01-05T11:11:22;99584.02;;;7.57;100.00
50065;BME280;64524;47.848;-122.338;2023-01-05T11:13:52;99593.31;;;7.57;100.00
50065;BME280;64524;47.848;-122.338;2023-01-05T11:16:30;99590.39;;;7.57;100.00
50065;BME280;64524;47.848;-122.338;2023-01-05T11:19:05;99581.94;;;7.57;100.00
50065;BME280;64524;47.848;-122.338;2023-01-05T11:24:03;99567.95;;;7.54;100.00
50065;BME280;64524;47.848;-122.338;2023-01-05T11:26:33;99565.71;;;7.54;100.00
50065;BME280;64524;47.848;-122.338;2023-01-05T11:31:39;99555.89;;;7.55;100.00
50065;BME280;64524;47.848;-122.338;2023-01-05T11:34:16;99552.48;;;7.56;100.00
50065;BME280;64524;47.848;-122.338;2023-01-05T11:36:50;99553.86;;;7.57;100.00
50065;BME280;64524;47.848;-122.338;2023-01-05T11:39:23;99556.94;;;7.58;100.00
50065;BME280;64524;47.848;-122.338;2023-01-05T11:42:20;99551.42;;;7.58;100.00
50065;BME280;64524;47.848;-122.338;2023-01-05T11:50:15;99540.20;;;7.55;100.00
50065;BME280;64524;47.848;-122.338;2023-01-05T11:52:46;99531.08;;;7.54;100.00
50065;BME280;64524;47.848;-122.338;2023-01-05T11:57:52;99523.66;;;7.53;100.00
50065;BME280;64524;47.848;-122.338;2023-01-05T12:00:30;99522.97;;;7.51;100.00
50065;BME280;64524;47.848;-122.338;2023-01-05T12:05:45;99514.86;;;7.49;100.00
50065;BME280;64524;47.848;-122.338;2023-01-05T12:08:17;99518.47;;;7.49;100.00
50065;BME280;64524;47.848;-122.338;2023-01-05T12:13:41;99505.05;;;7.51;100.00
50065;BME280;64524;47.848;-122.338;2023-01-05T12:16:17;99498.16;;;7.52;100.00
50065;BME280;64524;47.848;-122.338;2023-01-05T12:21:23;99486.09;;;7.53;100.00
50065;BME280;64524;47.848;-122.338;2023-01-05T12:29:16;99494.01;;;7.51;100.00
50065;BME280;64524;47.848;-122.338;2023-01-05T12:43:07;99497.97;;;7.50;100.00
50065;BME280;64524;47.848;-122.338;2023-01-05T12:48:48;99491.60;;;7.51;100.00
50065;BME280;64524;47.848;-122.338;2023-01-05T12:51:53;99493.52;;;7.53;100.00
50065;BME280;64524;47.848;-122.338;2023-01-05T12:54:04;99493.34;;;7.54;100.00
50065;BME280;64524;47.848;-122.338;2023-01-05T12:56:43;99488.02;;;7.56;100.00
50065;BME280;64524;47.848;-122.338;2023-01-05T12:59:14;99487.50;;;7.58;100.00
50065;BME280;64524;47.848;-122.338;2023-01-05T13:01:58;99484.06;;;7.61;100.00
50065;BME280;64524;47.848;-122.338;2023-01-05T13:07:14;99486.32;;;7.65;100.00
50065;BME280;64524;47.848;-122.338;2023-01-05T13:09:44;99491.69;;;7.68;100.00
50065;BME280;64524;47.848;-122.338;2023-01-05T13:12:14;99490.48;;;7.70;100.00
50065;BME280;64524;47.848;-122.338;2023-01-05T13:17:31;99499.27;;;7.71;100.00
50065;BME280;64524;47.848;-122.338;2023-01-05T13:22:44;99507.39;;;7.73;100.00
50065;BME280;64524;47.848;-122.338;2023-01-05T13:25:19;99510.48;;;7.73;100.00
50065;BME280;64524;47.848;-122.338;2023-01-05T13:27:47;99513.41;;;7.73;100.00
50065;BME280;64524;47.848;-122.338;2023-01-05T13:32:57;99513.25;;;7.75;100.00
50065;BME280;64524;47.848;-122.338;2023-01-05T13:35:30;99507.05;;;7.75;100.00
50065;BME280;64524;47.848;-122.338;2023-01-05T13:38:09;99499.29;;;7.75;100.00
50065;BME280;64524;47.848;-122.338;2023-01-05T13:54:05;99446.55;;;7.80;100.00
50065;BME280;64524;47.848;-122.338;2023-01-05T13:56:39;99444.14;;;7.82;100.00
50065;BME280;64524;47.848;-122.338;2023-01-05T14:02:00;99423.83;;;7.87;100.00
50065;BME280;64524;47.848;-122.338;2023-01-05T14:04:31;99425.38;;;7.90;100.00
50065;BME280;64524;47.848;-122.338;2023-01-05T14:07:02;99430.73;;;7.94;100.00
50065;BME280;64524;47.848;-122.338;2023-01-05T14:12:22;99416.77;;;8.02;100.00
50065;BME280;64524;47.848;-122.338;2023-01-05T14:15:01;99400.92;;;8.05;100.00
50065;BME280;64524;47.848;-122.338;2023-01-05T14:20:41;99392.30;;;8.11;100.00
50065;BME280;64524;47.848;-122.338;2023-01-05T14:28:21;99410.92;;;8.25;100.00
50065;BME280;64524;47.848;-122.338;2023-01-05T14:30:50;99416.80;;;8.27;100.00
50065;BME280;64524;47.848;-122.338;2023-01-05T14:33:19;99409.91;;;8.30;100.00
50065;BME280;64524;47.848;-122.338;2023-01-05T14:35:48;99414.91;;;8.33;100.00
50065;BME280;64524;47.848;-122.338;2023-01-05T14:38:18;99421.11;;;8.37;100.00
50065;BME280;64524;47.848;-122.338;2023-01-05T14:40:52;99406.63;;;8.41;100.00
50065;BME280;64524;47.848;-122.338;2023-01-05T14:53:47;99377.31;;;8.53;100.00
50065;BME280;64524;47.848;-122.338;2023-01-05T14:56:17;99376.28;;;8.54;100.00
50065;BME280;64524;47.848;-122.338;2023-01-05T14:59:32;99377.14;;;8.55;100.00
50065;BME280;64524;47.848;-122.338;2023-01-05T15:01:36;99374.37;;;8.56;100.00